sensor_id;sensor_type;location;lat;lon;timestamp;P1;durP1;ratioP1;P2;durP2;ratioP2
58468;SDS011;44257;44.804;10.220;2022-08-18T00:01:20;1.65;;;0.65;;
58468;SDS011;44257;44.804;10.220;2022-08-18T00:03:48;0.75;;;0.50;;
58468;SDS011;44257;44.804;10.220;2022-08-18T00:06:15;1.17;;;0.55;;
58468;SDS011;44257;44.804;10.220;2022-08-18T00:08:42;8.95;;;0.68;;
58468;SDS011;44257;44.804;10.220;2022-08-18T00:11:08;0.77;;;0.63;;
58468;SDS011;44257;44.804;10.220;2022-08-18T00:13:35;0.95;;;0.68;;
58468;SDS011;44257;44.804;10.220;2022-08-18T00:16:01;2.88;;;0.98;;
58468;SDS011;44257;44.804;10.220;2022-08-18T00:18:27;0.75;;;0.70;;
58468;SDS011;44257;44.804;10.220;2022-08-18T00:20:53;0.65;;;0.57;;
58468;SDS011;44257;44.804;10.220;2022-08-18T00:23:19;0.65;;;0.30;;
58468;SDS011;44257;44.804;10.220;2022-08-18T00:25:44;11.38;;;1.73;;
58468;SDS011;44257;44.804;10.220;2022-08-18T00:28:11;1.25;;;1.02;;
58468;SDS011;44257;44.804;10.220;2022-08-18T00:30:38;1.00;;;0.80;;
58468;SDS011;44257;44.804;10.220;2022-08-18T00:33:04;0.70;;;0.43;;
58468;SDS011;44257;44.804;10.220;2022-08-18T00:35:32;1.52;;;0.65;;
58468;SDS011;44257;44.804;10.220;2022-08-18T00:38:02;1.35;;;0.90;;
58468;SDS011;44257;44.804;10.220;2022-08-18T00:40:33;1.90;;;1.30;;
58468;SDS011;44257;44.804;10.220;2022-08-18T00:43:10;1.85;;;0.70;;
58468;SDS011;44257;44.804;10.220;2022-08-18T00:45:39;1.63;;;0.70;;
58468;SDS011;44257;44.804;10.220;2022-08-18T00:48:08;1.48;;;1.00;;
58468;SDS011;44257;44.804;10.220;2022-08-18T00:50:57;1.77;;;0.77;;
58468;SDS011;44257;44.804;10.220;2022-08-18T00:56:02;0.45;;;0.40;;
58468;SDS011;44257;44.804;10.220;2022-08-18T00:58:40;2.45;;;1.27;;
58468;SDS011;44257;44.804;10.220;2022-08-18T01:01:13;0.75;;;0.73;;
58468;SDS011;44257;44.804;10.220;2022-08-18T01:03:43;1.85;;;1.25;;
58468;SDS011;44257;44.804;10.220;2022-08-18T01:06:22;1.50;;;0.63;;
58468;SDS011;44257;44.804;10.220;2022-08-18T01:08:56;1.65;;;0.85;;
58468;SDS011;44257;44.804;10.220;2022-08-18T01:11:23;1.83;;;0.82;;
58468;SDS011;44257;44.804;10.220;2022-08-18T01:13:49;10.65;;;1.90;;
58468;SDS011;44257;44.804;10.220;2022-08-18T01:16:16;0.88;;;0.60;;
58468;SDS011;44257;44.804;10.220;2022-08-18T01:19:02;0.88;;;0.40;;
58468;SDS011;44257;44.804;10.220;2022-08-18T01:21:54;1.10;;;0.70;;
58468;SDS011;44257;44.804;10.220;2022-08-18T01:24:27;0.65;;;0.40;;
58468;SDS011;44257;44.804;10.220;2022-08-18T01:27:16;5.82;;;1.35;;
58468;SDS011;44257;44.804;10.220;2022-08-18T01:29:43;1.48;;;0.85;;
58468;SDS011;44257;44.804;10.220;2022-08-18T01:32:13;1.35;;;0.75;;
58468;SDS011;44257;44.804;10.220;2022-08-18T01:34:43;0.80;;;0.50;;
58468;SDS011;44257;44.804;10.220;2022-08-18T01:37:14;2.42;;;1.23;;
58468;SDS011;44257;44.804;10.220;2022-08-18T01:39:41;2.20;;;1.23;;
58468;SDS011;44257;44.804;10.220;2022-08-18T01:42:10;2.13;;;1.70;;
58468;SDS011;44257;44.804;10.220;2022-08-18T01:44:37;3.63;;;1.88;;
58468;SDS011;44257;44.804;10.220;2022-08-18T01:47:06;3.00;;;1.33;;
58468;SDS011;44257;44.804;10.220;2022-08-18T01:49:35;3.92;;;2.53;;
58468;SDS011;44257;44.804;10.220;2022-08-18T01:52:03;7.18;;;2.13;;
58468;SDS011;44257;44.804;10.220;2022-08-18T01:54:31;5.40;;;4.30;;
58468;SDS011;44257;44.804;10.220;2022-08-18T01:56:57;6.95;;;2.65;;
58468;SDS011;44257;44.804;10.220;2022-08-18T01:59:24;3.22;;;1.63;;
58468;SDS011;44257;44.804;10.220;2022-08-18T02:01:50;6.68;;;3.35;;
58468;SDS011;44257;44.804;10.220;2022-08-18T02:04:24;4.72;;;3.55;;
58468;SDS011;44257;44.804;10.220;2022-08-18T02:06:52;5.43;;;3.33;;
58468;SDS011;44257;44.804;10.220;2022-08-18T02:09:20;4.90;;;3.10;;
58468;SDS011;44257;44.804;10.220;2022-08-18T02:11:46;4.63;;;2.50;;
58468;SDS011;44257;44.804;10.220;2022-08-18T02:14:12;4.43;;;3.60;;
58468;SDS011;44257;44.804;10.220;2022-08-18T02:16:38;3.97;;;3.38;;
58468;SDS011;44257;44.804;10.220;2022-08-18T02:19:04;3.58;;;2.08;;
58468;SDS011;44257;44.804;10.220;2022-08-18T02:21:29;4.32;;;3.05;;
58468;SDS011;44257;44.804;10.220;2022-08-18T02:23:55;3.75;;;2.50;;
58468;SDS011;44257;44.804;10.220;2022-08-18T02:26:21;3.78;;;1.73;;
58468;SDS011;44257;44.804;10.220;2022-08-18T02:28:49;5.68;;;2.92;;
58468;SDS011;44257;44.804;10.220;2022-08-18T02:31:17;1.98;;;1.55;;
58468;SDS011;44257;44.804;10.220;2022-08-18T02:33:45;10.65;;;4.20;;
58468;SDS011;44257;44.804;10.220;2022-08-18T02:36:11;3.33;;;1.55;;
58468;SDS011;44257;44.804;10.220;2022-08-18T02:38:38;1.75;;;1.35;;
58468;SDS011;44257;44.804;10.220;2022-08-18T02:41:06;2.53;;;1.98;;
58468;SDS011;44257;44.804;10.220;2022-08-18T02:43:35;6.18;;;0.82;;
58468;SDS011;44257;44.804;10.220;2022-08-18T02:46:02;1.38;;;1.02;;
58468;SDS011;44257;44.804;10.220;2022-08-18T02:48:29;2.33;;;0.80;;
58468;SDS011;44257;44.804;10.220;2022-08-18T02:51:07;0.77;;;0.40;;
58468;SDS011;44257;44.804;10.220;2022-08-18T02:53:38;1.35;;;1.10;;
58468;SDS011;44257;44.804;10.220;2022-08-18T02:58:54;1.08;;;0.55;;
58468;SDS011;44257;44.804;10.220;2022-08-18T03:01:29;0.70;;;0.70;;
58468;SDS011;44257;44.804;10.220;2022-08-18T03:03:59;1.00;;;0.68;;
58468;SDS011;44257;44.804;10.220;2022-08-18T03:06:25;0.38;;;0.17;;
58468;SDS011;44257;44.804;10.220;2022-08-18T03:08:53;1.10;;;0.60;;
58468;SDS011;44257;44.804;10.220;2022-08-18T03:11:26;1.83;;;1.02;;
58468;SDS011;44257;44.804;10.220;2022-08-18T03:13:54;0.63;;;0.45;;
58468;SDS011;44257;44.804;10.220;2022-08-18T03:16:20;1.92;;;1.17;;
58468;SDS011;44257;44.804;10.220;2022-08-18T03:18:49;0.93;;;0.75;;
58468;SDS011;44257;44.804;10.220;2022-08-18T03:21:17;0.80;;;0.52;;
58468;SDS011;44257;44.804;10.220;2022-08-18T03:23:46;2.78;;;1.60;;
58468;SDS011;44257;44.804;10.220;2022-08-18T03:26:13;0.98;;;0.88;;
58468;SDS011;44257;44.804;10.220;2022-08-18T03:28:40;2.85;;;1.98;;
58468;SDS011;44257;44.804;10.220;2022-08-18T03:31:09;6.20;;;0.95;;
58468;SDS011;44257;44.804;10.220;2022-08-18T03:33:37;1.48;;;0.93;;
58468;SDS011;44257;44.804;10.220;2022-08-18T03:36:06;1.38;;;1.25;;
58468;SDS011;44257;44.804;10.220;2022-08-18T03:38:39;1.63;;;1.20;;
58468;SDS011;44257;44.804;10.220;2022-08-18T03:41:08;1.35;;;1.15;;
58468;SDS011;44257;44.804;10.220;2022-08-18T03:43:35;3.70;;;0.90;;
58468;SDS011;44257;44.804;10.220;2022-08-18T03:46:05;2.00;;;1.17;;
58468;SDS011;44257;44.804;10.220;2022-08-18T03:48:34;0.60;;;0.45;;
58468;SDS011;44257;44.804;10.220;2022-08-18T03:51:08;1.80;;;0.90;;
58468;SDS011;44257;44.804;10.220;2022-08-18T03:53:38;2.22;;;1.02;;
58468;SDS011;44257;44.804;10.220;2022-08-18T03:56:11;1.65;;;1.48;;
58468;SDS011;44257;44.804;10.220;2022-08-18T03:58:43;2.00;;;1.45;;
58468;SDS011;44257;44.804;10.220;2022-08-18T04:01:21;2.53;;;1.55;;
58468;SDS011;44257;44.804;10.220;2022-08-18T04:03:56;1.20;;;1.08;;
58468;SDS011;44257;44.804;10.220;2022-08-18T04:06:32;2.83;;;1.13;;
58468;SDS011;44257;44.804;10.220;2022-08-18T04:09:01;2.88;;;1.80;;
58468;SDS011;44257;44.804;10.220;2022-08-18T04:11:30;2.80;;;1.45;;
58468;SDS011;44257;44.804;10.220;2022-08-18T04:14:02;2.40;;;1.77;;
58468;SDS011;44257;44.804;10.220;2022-08-18T04:16:30;2.58;;;1.65;;
58468;SDS011;44257;44.804;10.220;2022-08-18T04:18:58;2.42;;;1.08;;
58468;SDS011;44257;44.804;10.220;2022-08-18T04:21:27;1.50;;;0.95;;
58468;SDS011;44257;44.804;10.220;2022-08-18T04:23:57;1.80;;;1.13;;
58468;SDS011;44257;44.804;10.220;2022-08-18T04:26:30;1.98;;;1.67;;
58468;SDS011;44257;44.804;10.220;2022-08-18T04:28:57;1.20;;;1.10;;
58468;SDS011;44257;44.804;10.220;2022-08-18T04:31:25;2.72;;;2.08;;
58468;SDS011;44257;44.804;10.220;2022-08-18T04:33:51;10.32;;;1.17;;
58468;SDS011;44257;44.804;10.220;2022-08-18T04:36:17;1.30;;;1.17;;
58468;SDS011;44257;44.804;10.220;2022-08-18T04:38:43;4.28;;;2.28;;
58468;SDS011;44257;44.804;10.220;2022-08-18T04:41:10;1.88;;;1.42;;
58468;SDS011;44257;44.804;10.220;2022-08-18T04:43:37;3.22;;;1.45;;
58468;SDS011;44257;44.804;10.220;2022-08-18T04:46:05;1.98;;;1.23;;
58468;SDS011;44257;44.804;10.220;2022-08-18T04:48:32;1.73;;;1.58;;
58468;SDS011;44257;44.804;10.220;2022-08-18T04:53:33;3.00;;;1.52;;
58468;SDS011;44257;44.804;10.220;2022-08-18T04:56:16;2.55;;;1.85;;
58468;SDS011;44257;44.804;10.220;2022-08-18T04:58:51;1.52;;;1.27;;
58468;SDS011;44257;44.804;10.220;2022-08-18T05:01:27;2.88;;;2.17;;
58468;SDS011;44257;44.804;10.220;2022-08-18T05:03:56;1.10;;;0.75;;
58468;SDS011;44257;44.804;10.220;2022-08-18T05:06:26;5.40;;;1.63;;
58468;SDS011;44257;44.804;10.220;2022-08-18T05:08:53;3.40;;;1.80;;
58468;SDS011;44257;44.804;10.220;2022-08-18T05:11:21;1.17;;;1.02;;
58468;SDS011;44257;44.804;10.220;2022-08-18T05:13:48;3.70;;;2.38;;
58468;SDS011;44257;44.804;10.220;2022-08-18T05:16:16;3.17;;;1.83;;
58468;SDS011;44257;44.804;10.220;2022-08-18T05:18:41;6.75;;;2.20;;
58468;SDS011;44257;44.804;10.220;2022-08-18T05:21:09;2.65;;;1.98;;
58468;SDS011;44257;44.804;10.220;2022-08-18T05:23:43;4.18;;;1.80;;
58468;SDS011;44257;44.804;10.220;2022-08-18T05:28:39;2.08;;;1.20;;
58468;SDS011;44257;44.804;10.220;2022-08-18T05:33:44;3.50;;;1.85;;
58468;SDS011;44257;44.804;10.220;2022-08-18T05:41:29;9.45;;;1.88;;
58468;SDS011;44257;44.804;10.220;2022-08-18T05:44:00;2.20;;;1.48;;
58468;SDS011;44257;44.804;10.220;2022-08-18T05:46:36;2.63;;;1.58;;
58468;SDS011;44257;44.804;10.220;2022-08-18T05:49:13;7.40;;;1.83;;
58468;SDS011;44257;44.804;10.220;2022-08-18T05:51:40;2.47;;;1.38;;
58468;SDS011;44257;44.804;10.220;2022-08-18T05:54:09;2.88;;;1.48;;
58468;SDS011;44257;44.804;10.220;2022-08-18T05:56:57;4.18;;;2.38;;
58468;SDS011;44257;44.804;10.220;2022-08-18T05:59:31;2.20;;;2.00;;
58468;SDS011;44257;44.804;10.220;2022-08-18T06:04:55;3.25;;;2.08;;
58468;SDS011;44257;44.804;10.220;2022-08-18T06:07:49;2.83;;;2.03;;
58468;SDS011;44257;44.804;10.220;2022-08-18T06:10:18;2.45;;;1.70;;
58468;SDS011;44257;44.804;10.220;2022-08-18T06:12:46;5.68;;;2.55;;
58468;SDS011;44257;44.804;10.220;2022-08-18T06:15:17;3.53;;;2.75;;
58468;SDS011;44257;44.804;10.220;2022-08-18T06:26:22;4.25;;;2.20;;
58468;SDS011;44257;44.804;10.220;2022-08-18T06:31:39;3.50;;;2.45;;
58468;SDS011;44257;44.804;10.220;2022-08-18T06:37:01;3.20;;;2.17;;
58468;SDS011;44257;44.804;10.220;2022-08-18T06:39:38;2.13;;;1.50;;
58468;SDS011;44257;44.804;10.220;2022-08-18T06:42:20;4.47;;;2.53;;
58468;SDS011;44257;44.804;10.220;2022-08-18T06:50:19;5.20;;;3.17;;
58468;SDS011;44257;44.804;10.220;2022-08-18T06:53:11;5.47;;;3.30;;
58468;SDS011;44257;44.804;10.220;2022-08-18T06:55:46;3.38;;;2.22;;
58468;SDS011;44257;44.804;10.220;2022-08-18T07:00:44;2.38;;;1.63;;
58468;SDS011;44257;44.804;10.220;2022-08-18T07:03:22;15.00;;;2.88;;
58468;SDS011;44257;44.804;10.220;2022-08-18T07:09:33;3.95;;;2.75;;
58468;SDS011;44257;44.804;10.220;2022-08-18T07:12:02;4.43;;;2.70;;
58468;SDS011;44257;44.804;10.220;2022-08-18T07:14:33;5.25;;;2.78;;
58468;SDS011;44257;44.804;10.220;2022-08-18T07:17:12;4.18;;;2.03;;
58468;SDS011;44257;44.804;10.220;2022-08-18T07:19:58;4.47;;;2.65;;
58468;SDS011;44257;44.804;10.220;2022-08-18T07:22:27;3.13;;;2.53;;
58468;SDS011;44257;44.804;10.220;2022-08-18T07:24:54;4.35;;;2.47;;
58468;SDS011;44257;44.804;10.220;2022-08-18T07:27:39;3.65;;;2.00;;
58468;SDS011;44257;44.804;10.220;2022-08-18T07:36:09;3.20;;;1.85;;
58468;SDS011;44257;44.804;10.220;2022-08-18T07:38:41;3.15;;;2.08;;
58468;SDS011;44257;44.804;10.220;2022-08-18T07:44:22;3.83;;;2.97;;
58468;SDS011;44257;44.804;10.220;2022-08-18T07:46:55;5.80;;;2.78;;
58468;SDS011;44257;44.804;10.220;2022-08-18T07:49:25;3.45;;;2.28;;
58468;SDS011;44257;44.804;10.220;2022-08-18T07:51:56;2.75;;;2.30;;
58468;SDS011;44257;44.804;10.220;2022-08-18T08:08:13;3.92;;;2.20;;
58468;SDS011;44257;44.804;10.220;2022-08-18T08:21:36;2.75;;;2.05;;
58468;SDS011;44257;44.804;10.220;2022-08-18T08:27:21;2.80;;;1.52;;
58468;SDS011;44257;44.804;10.220;2022-08-18T08:30:05;4.43;;;2.47;;
58468;SDS011;44257;44.804;10.220;2022-08-18T08:32:35;4.72;;;1.92;;
58468;SDS011;44257;44.804;10.220;2022-08-18T08:38:00;2.92;;;2.05;;
58468;SDS011;44257;44.804;10.220;2022-08-18T08:43:08;3.80;;;2.83;;
58468;SDS011;44257;44.804;10.220;2022-08-18T08:46:24;4.68;;;1.58;;
58468;SDS011;44257;44.804;10.220;2022-08-18T08:48:31;1.75;;;1.52;;
58468;SDS011;44257;44.804;10.220;2022-08-18T08:54:26;2.97;;;1.65;;
58468;SDS011;44257;44.804;10.220;2022-08-18T08:57:02;3.88;;;2.58;;
58468;SDS011;44257;44.804;10.220;2022-08-18T08:59:29;6.57;;;2.25;;
58468;SDS011;44257;44.804;10.220;2022-08-18T09:04:43;5.15;;;1.70;;
58468;SDS011;44257;44.804;10.220;2022-08-18T09:12:54;2.40;;;1.60;;
58468;SDS011;44257;44.804;10.220;2022-08-18T09:24:04;4.40;;;2.05;;
58468;SDS011;44257;44.804;10.220;2022-08-18T09:29:21;2.08;;;1.33;;
58468;SDS011;44257;44.804;10.220;2022-08-18T09:37:26;0.65;;;0.63;;
58468;SDS011;44257;44.804;10.220;2022-08-18T09:40:13;1.35;;;0.38;;
58468;SDS011;44257;44.804;10.220;2022-08-18T09:45:54;0.55;;;0.38;;
58468;SDS011;44257;44.804;10.220;2022-08-18T09:48:28;1.02;;;0.57;;
58468;SDS011;44257;44.804;10.220;2022-08-18T09:51:14;1.48;;;1.10;;
58468;SDS011;44257;44.804;10.220;2022-08-18T09:56:14;0.98;;;0.85;;
58468;SDS011;44257;44.804;10.220;2022-08-18T09:58:58;0.85;;;0.40;;
58468;SDS011;44257;44.804;10.220;2022-08-18T10:06:48;0.00;;;0.00;;
58468;SDS011;44257;44.804;10.220;2022-08-18T10:22:59;0.00;;;0.00;;
58468;SDS011;44257;44.804;10.220;2022-08-18T10:25:44;0.57;;;0.32;;
58468;SDS011;44257;44.804;10.220;2022-08-18T10:31:16;0.00;;;0.00;;
58468;SDS011;44257;44.804;10.220;2022-08-18T10:34:03;0.00;;;0.00;;
58468;SDS011;44257;44.804;10.220;2022-08-18T10:37:14;0.20;;;0.20;;
58468;SDS011;44257;44.804;10.220;2022-08-18T10:39:56;0.05;;;0.03;;
58468;SDS011;44257;44.804;10.220;2022-08-18T10:42:21;0.00;;;0.00;;
58468;SDS011;44257;44.804;10.220;2022-08-18T10:45:11;0.00;;;0.00;;
58468;SDS011;44257;44.804;10.220;2022-08-18T10:56:32;0.10;;;0.00;;
58468;SDS011;44257;44.804;10.220;2022-08-18T11:02:03;0.00;;;0.00;;
58468;SDS011;44257;44.804;10.220;2022-08-18T11:04:52;0.10;;;0.10;;
58468;SDS011;44257;44.804;10.220;2022-08-18T11:07:24;0.60;;;0.20;;
58468;SDS011;44257;44.804;10.220;2022-08-18T11:09:55;0.00;;;0.00;;
58468;SDS011;44257;44.804;10.220;2022-08-18T11:15:05;0.00;;;0.00;;
58468;SDS011;44257;44.804;10.220;2022-08-18T11:17:44;0.08;;;0.08;;
58468;SDS011;44257;44.804;10.220;2022-08-18T11:20:15;0.10;;;0.10;;
58468;SDS011;44257;44.804;10.220;2022-08-18T11:22:54;0.25;;;0.10;;
58468;SDS011;44257;44.804;10.220;2022-08-18T11:25:26;0.00;;;0.00;;
58468;SDS011;44257;44.804;10.220;2022-08-18T11:27:52;0.47;;;0.10;;
58468;SDS011;44257;44.804;10.220;2022-08-18T11:30:19;0.00;;;0.00;;
58468;SDS011;44257;44.804;10.220;2022-08-18T11:32:45;4.60;;;0.30;;
58468;SDS011;44257;44.804;10.220;2022-08-18T11:35:18;0.03;;;0.00;;
58468;SDS011;44257;44.804;10.220;2022-08-18T11:37:55;0.32;;;0.22;;
58468;SDS011;44257;44.804;10.220;2022-08-18T11:40:42;3.00;;;0.25;;
58468;SDS011;44257;44.804;10.220;2022-08-18T11:43:17;0.90;;;0.60;;
58468;SDS011;44257;44.804;10.220;2022-08-18T11:45:52;0.17;;;0.15;;
58468;SDS011;44257;44.804;10.220;2022-08-18T11:58:50;0.43;;;0.35;;
58468;SDS011;44257;44.804;10.220;2022-08-18T12:04:12;0.60;;;0.43;;
58468;SDS011;44257;44.804;10.220;2022-08-18T12:06:40;0.95;;;0.63;;
58468;SDS011;44257;44.804;10.220;2022-08-18T12:09:21;0.68;;;0.60;;
58468;SDS011;44257;44.804;10.220;2022-08-18T12:12:20;1.23;;;1.13;;
58468;SDS011;44257;44.804;10.220;2022-08-18T12:15:01;1.10;;;0.60;;
58468;SDS011;44257;44.804;10.220;2022-08-18T12:17:28;0.40;;;0.40;;
58468;SDS011;44257;44.804;10.220;2022-08-18T12:19:56;1.02;;;0.77;;
58468;SDS011;44257;44.804;10.220;2022-08-18T12:22:27;1.02;;;0.40;;
58468;SDS011;44257;44.804;10.220;2022-08-18T12:24:59;0.47;;;0.15;;
58468;SDS011;44257;44.804;10.220;2022-08-18T12:27:26;0.77;;;0.65;;
58468;SDS011;44257;44.804;10.220;2022-08-18T12:29:54;0.43;;;0.25;;
58468;SDS011;44257;44.804;10.220;2022-08-18T12:32:22;0.80;;;0.30;;
58468;SDS011;44257;44.804;10.220;2022-08-18T12:34:50;1.00;;;0.28;;
58468;SDS011;44257;44.804;10.220;2022-08-18T12:37:17;1.20;;;0.77;;
58468;SDS011;44257;44.804;10.220;2022-08-18T12:39:44;2.55;;;0.63;;
58468;SDS011;44257;44.804;10.220;2022-08-18T12:42:11;0.80;;;0.73;;
58468;SDS011;44257;44.804;10.220;2022-08-18T12:44:37;4.10;;;1.02;;
58468;SDS011;44257;44.804;10.220;2022-08-18T12:47:06;0.55;;;0.52;;
58468;SDS011;44257;44.804;10.220;2022-08-18T12:49:51;9.73;;;0.77;;
58468;SDS011;44257;44.804;10.220;2022-08-18T12:52:18;0.73;;;0.35;;
58468;SDS011;44257;44.804;10.220;2022-08-18T12:54:44;0.75;;;0.45;;
58468;SDS011;44257;44.804;10.220;2022-08-18T12:57:24;0.65;;;0.40;;
58468;SDS011;44257;44.804;10.220;2022-08-18T12:59:53;0.20;;;0.20;;
58468;SDS011;44257;44.804;10.220;2022-08-18T13:02:19;0.50;;;0.47;;
58468;SDS011;44257;44.804;10.220;2022-08-18T13:04:45;0.85;;;0.65;;
58468;SDS011;44257;44.804;10.220;2022-08-18T13:07:12;0.40;;;0.32;;
58468;SDS011;44257;44.804;10.220;2022-08-18T13:09:41;0.95;;;0.55;;
58468;SDS011;44257;44.804;10.220;2022-08-18T13:12:08;0.68;;;0.35;;
58468;SDS011;44257;44.804;10.220;2022-08-18T13:14:34;0.60;;;0.50;;
58468;SDS011;44257;44.804;10.220;2022-08-18T13:17:00;0.30;;;0.30;;
58468;SDS011;44257;44.804;10.220;2022-08-18T13:19:26;0.90;;;0.40;;
58468;SDS011;44257;44.804;10.220;2022-08-18T13:21:52;0.15;;;0.15;;
58468;SDS011;44257;44.804;10.220;2022-08-18T13:24:18;0.03;;;0.03;;
58468;SDS011;44257;44.804;10.220;2022-08-18T13:26:45;0.20;;;0.20;;
58468;SDS011;44257;44.804;10.220;2022-08-18T13:29:12;4.78;;;0.60;;
58468;SDS011;44257;44.804;10.220;2022-08-18T13:31:41;0.35;;;0.20;;
58468;SDS011;44257;44.804;10.220;2022-08-18T13:34:08;1.60;;;0.98;;
58468;SDS011;44257;44.804;10.220;2022-08-18T13:36:34;0.35;;;0.30;;
58468;SDS011;44257;44.804;10.220;2022-08-18T13:39:10;0.50;;;0.50;;
58468;SDS011;44257;44.804;10.220;2022-08-18T13:41:42;0.30;;;0.25;;
58468;SDS011;44257;44.804;10.220;2022-08-18T13:44:09;0.15;;;0.10;;
58468;SDS011;44257;44.804;10.220;2022-08-18T13:46:41;0.43;;;0.28;;
58468;SDS011;44257;44.804;10.220;2022-08-18T13:49:11;0.75;;;0.40;;
58468;SDS011;44257;44.804;10.220;2022-08-18T13:51:39;0.20;;;0.20;;
58468;SDS011;44257;44.804;10.220;2022-08-18T13:54:07;0.13;;;0.13;;
58468;SDS011;44257;44.804;10.220;2022-08-18T13:56:47;1.30;;;0.95;;
58468;SDS011;44257;44.804;10.220;2022-08-18T13:59:12;0.32;;;0.30;;
58468;SDS011;44257;44.804;10.220;2022-08-18T14:01:39;0.40;;;0.28;;
58468;SDS011;44257;44.804;10.220;2022-08-18T14:04:05;0.85;;;0.65;;
58468;SDS011;44257;44.804;10.220;2022-08-18T14:06:32;2.25;;;0.28;;
58468;SDS011;44257;44.804;10.220;2022-08-18T14:08:58;0.25;;;0.20;;
58468;SDS011;44257;44.804;10.220;2022-08-18T14:11:26;1.63;;;0.75;;
58468;SDS011;44257;44.804;10.220;2022-08-18T14:13:54;2.80;;;0.73;;
58468;SDS011;44257;44.804;10.220;2022-08-18T14:16:21;0.85;;;0.30;;
58468;SDS011;44257;44.804;10.220;2022-08-18T14:18:47;0.45;;;0.28;;
58468;SDS011;44257;44.804;10.220;2022-08-18T14:21:35;1.95;;;0.28;;
58468;SDS011;44257;44.804;10.220;2022-08-18T14:24:25;0.45;;;0.20;;
58468;SDS011;44257;44.804;10.220;2022-08-18T14:27:10;0.65;;;0.50;;
58468;SDS011;44257;44.804;10.220;2022-08-18T14:29:36;0.22;;;0.20;;
58468;SDS011;44257;44.804;10.220;2022-08-18T14:32:02;0.20;;;0.15;;
58468;SDS011;44257;44.804;10.220;2022-08-18T14:34:28;0.10;;;0.10;;
58468;SDS011;44257;44.804;10.220;2022-08-18T14:36:54;0.40;;;0.17;;
58468;SDS011;44257;44.804;10.220;2022-08-18T14:39:20;0.22;;;0.20;;
58468;SDS011;44257;44.804;10.220;2022-08-18T14:41:46;0.30;;;0.20;;
58468;SDS011;44257;44.804;10.220;2022-08-18T14:44:13;0.50;;;0.38;;
58468;SDS011;44257;44.804;10.220;2022-08-18T14:46:42;0.57;;;0.40;;
58468;SDS011;44257;44.804;10.220;2022-08-18T14:49:12;5.97;;;0.45;;
58468;SDS011;44257;44.804;10.220;2022-08-18T14:51:39;1.17;;;0.75;;
58468;SDS011;44257;44.804;10.220;2022-08-18T14:54:10;1.15;;;0.63;;
58468;SDS011;44257;44.804;10.220;2022-08-18T14:56:36;1.05;;;0.40;;
58468;SDS011;44257;44.804;10.220;2022-08-18T14:59:03;0.50;;;0.30;;
58468;SDS011;44257;44.804;10.220;2022-08-18T15:01:32;0.65;;;0.30;;
58468;SDS011;44257;44.804;10.220;2022-08-18T15:03:59;0.63;;;0.28;;
58468;SDS011;44257;44.804;10.220;2022-08-18T15:06:26;0.40;;;0.28;;
58468;SDS011;44257;44.804;10.220;2022-08-18T15:08:53;0.25;;;0.25;;
58468;SDS011;44257;44.804;10.220;2022-08-18T15:11:20;0.20;;;0.20;;
58468;SDS011;44257;44.804;10.220;2022-08-18T15:13:46;0.47;;;0.28;;
58468;SDS011;44257;44.804;10.220;2022-08-18T15:16:13;1.45;;;0.70;;
58468;SDS011;44257;44.804;10.220;2022-08-18T15:18:44;1.10;;;0.85;;
58468;SDS011;44257;44.804;10.220;2022-08-18T15:21:11;2.45;;;1.50;;
58468;SDS011;44257;44.804;10.220;2022-08-18T15:23:55;6.28;;;0.70;;
58468;SDS011;44257;44.804;10.220;2022-08-18T15:26:40;0.90;;;0.40;;
58468;SDS011;44257;44.804;10.220;2022-08-18T15:29:08;0.85;;;0.60;;
58468;SDS011;44257;44.804;10.220;2022-08-18T15:31:35;0.70;;;0.60;;
58468;SDS011;44257;44.804;10.220;2022-08-18T15:34:02;1.85;;;1.02;;
58468;SDS011;44257;44.804;10.220;2022-08-18T15:36:30;1.17;;;0.85;;
58468;SDS011;44257;44.804;10.220;2022-08-18T15:38:58;1.15;;;0.85;;
58468;SDS011;44257;44.804;10.220;2022-08-18T15:43:59;1.98;;;0.95;;
58468;SDS011;44257;44.804;10.220;2022-08-18T15:46:27;1.25;;;0.98;;
58468;SDS011;44257;44.804;10.220;2022-08-18T15:48:53;3.30;;;0.95;;
58468;SDS011;44257;44.804;10.220;2022-08-18T15:51:19;3.50;;;1.92;;
58468;SDS011;44257;44.804;10.220;2022-08-18T15:53:47;1.55;;;1.08;;
58468;SDS011;44257;44.804;10.220;2022-08-18T15:56:17;0.82;;;0.60;;
58468;SDS011;44257;44.804;10.220;2022-08-18T15:58:47;4.70;;;0.90;;
58468;SDS011;44257;44.804;10.220;2022-08-18T16:01:15;1.27;;;0.50;;
58468;SDS011;44257;44.804;10.220;2022-08-18T16:03:41;1.50;;;0.73;;
58468;SDS011;44257;44.804;10.220;2022-08-18T16:06:11;0.68;;;0.57;;
58468;SDS011;44257;44.804;10.220;2022-08-18T16:08:38;0.95;;;0.68;;
58468;SDS011;44257;44.804;10.220;2022-08-18T16:11:09;1.02;;;0.55;;
58468;SDS011;44257;44.804;10.220;2022-08-18T16:13:37;2.47;;;1.40;;
58468;SDS011;44257;44.804;10.220;2022-08-18T16:16:07;3.75;;;1.83;;
58468;SDS011;44257;44.804;10.220;2022-08-18T16:18:38;1.42;;;0.93;;
58468;SDS011;44257;44.804;10.220;2022-08-18T16:21:09;2.15;;;1.13;;
58468;SDS011;44257;44.804;10.220;2022-08-18T16:23:39;1.35;;;0.75;;
58468;SDS011;44257;44.804;10.220;2022-08-18T16:26:08;4.00;;;0.95;;
58468;SDS011;44257;44.804;10.220;2022-08-18T16:28:34;2.70;;;0.90;;
58468;SDS011;44257;44.804;10.220;2022-08-18T16:31:01;1.02;;;0.75;;
58468;SDS011;44257;44.804;10.220;2022-08-18T16:33:27;1.00;;;0.82;;
58468;SDS011;44257;44.804;10.220;2022-08-18T16:35:54;0.75;;;0.65;;
58468;SDS011;44257;44.804;10.220;2022-08-18T16:38:20;0.65;;;0.57;;
58468;SDS011;44257;44.804;10.220;2022-08-18T16:40:48;1.60;;;1.02;;
58468;SDS011;44257;44.804;10.220;2022-08-18T16:43:14;1.33;;;0.85;;
58468;SDS011;44257;44.804;10.220;2022-08-18T16:45:39;1.40;;;1.10;;
58468;SDS011;44257;44.804;10.220;2022-08-18T16:48:07;5.63;;;2.10;;
58468;SDS011;44257;44.804;10.220;2022-08-18T16:50:36;1.08;;;0.82;;
58468;SDS011;44257;44.804;10.220;2022-08-18T16:53:02;1.08;;;0.65;;
58468;SDS011;44257;44.804;10.220;2022-08-18T16:55:29;1.90;;;1.10;;
58468;SDS011;44257;44.804;10.220;2022-08-18T16:57:55;0.73;;;0.63;;
58468;SDS011;44257;44.804;10.220;2022-08-18T17:00:40;1.70;;;0.93;;
58468;SDS011;44257;44.804;10.220;2022-08-18T17:03:25;1.65;;;1.17;;
58468;SDS011;44257;44.804;10.220;2022-08-18T17:06:12;3.65;;;1.40;;
58468;SDS011;44257;44.804;10.220;2022-08-18T17:08:40;2.17;;;1.58;;
58468;SDS011;44257;44.804;10.220;2022-08-18T17:11:10;2.33;;;1.27;;
58468;SDS011;44257;44.804;10.220;2022-08-18T17:13:38;1.17;;;0.82;;
58468;SDS011;44257;44.804;10.220;2022-08-18T17:16:05;1.35;;;0.43;;
58468;SDS011;44257;44.804;10.220;2022-08-18T17:18:32;1.90;;;1.27;;
58468;SDS011;44257;44.804;10.220;2022-08-18T17:21:01;1.52;;;1.13;;
58468;SDS011;44257;44.804;10.220;2022-08-18T17:23:28;1.70;;;1.05;;
58468;SDS011;44257;44.804;10.220;2022-08-18T17:25:55;2.72;;;1.20;;
58468;SDS011;44257;44.804;10.220;2022-08-18T17:28:23;1.13;;;0.73;;
58468;SDS011;44257;44.804;10.220;2022-08-18T17:30:57;2.22;;;1.15;;
58468;SDS011;44257;44.804;10.220;2022-08-18T17:33:26;2.05;;;1.02;;
58468;SDS011;44257;44.804;10.220;2022-08-18T17:35:56;1.70;;;1.20;;
58468;SDS011;44257;44.804;10.220;2022-08-18T17:38:26;2.67;;;1.25;;
58468;SDS011;44257;44.804;10.220;2022-08-18T17:40:59;1.75;;;0.82;;
58468;SDS011;44257;44.804;10.220;2022-08-18T17:43:31;2.47;;;1.05;;
58468;SDS011;44257;44.804;10.220;2022-08-18T17:46:07;2.05;;;1.30;;
58468;SDS011;44257;44.804;10.220;2022-08-18T17:48:58;1.67;;;0.95;;
58468;SDS011;44257;44.804;10.220;2022-08-18T17:51:34;1.48;;;1.00;;